sensor_id;sensor_type;location;lat;lon;timestamp;pressure;altitude;pressure_sealevel;temperature;humidity
19751;BME280;4663;49.120;9.730;2023-03-23T00:01:02;97463.19;;;6.52;78.48
19751;BME280;4663;49.120;9.730;2023-03-23T00:03:28;97469.38;;;6.36;80.30
19751;BME280;4663;49.120;9.730;2023-03-23T00:05:58;97458.41;;;6.63;79.57
19751;BME280;4663;49.120;9.730;2023-03-23T00:08:34;97457.59;;;6.62;80.06
19751;BME280;4663;49.120;9.730;2023-03-23T00:11:05;97463.13;;;6.61;79.98
19751;BME280;4663;49.120;9.730;2023-03-23T00:13:32;97448.63;;;6.78;77.78
19751;BME280;4663;49.120;9.730;2023-03-23T00:15:58;97450.44;;;6.86;77.83
19751;BME280;4663;49.120;9.730;2023-03-23T00:18:24;97446.00;;;7.02;76.39
19751;BME280;4663;49.120;9.730;2023-03-23T00:20:54;97448.00;;;7.00;75.86
19751;BME280;4663;49.120;9.730;2023-03-23T00:23:22;97449.81;;;7.08;77.59
19751;BME280;4663;49.120;9.730;2023-03-23T00:25:50;97439.31;;;6.98;76.59
19751;BME280;4663;49.120;9.730;2023-03-23T00:28:16;97440.34;;;7.20;75.83
19751;BME280;4663;49.120;9.730;2023-03-23T00:30:42;97442.97;;;7.28;76.09
19751;BME280;4663;49.120;9.730;2023-03-23T00:33:08;97440.34;;;7.20;76.42
19751;BME280;4663;49.120;9.730;2023-03-23T00:35:34;97426.13;;;7.35;74.16
19751;BME280;4663;49.120;9.730;2023-03-23T00:38:02;97426.44;;;7.40;74.26
19751;BME280;4663;49.120;9.730;2023-03-23T00:40:29;97432.09;;;7.45;74.70
19751;BME280;4663;49.120;9.730;2023-03-23T00:42:55;97422.44;;;7.36;75.17
19751;BME280;4663;49.120;9.730;2023-03-23T00:45:21;97416.84;;;7.46;74.08
19751;BME280;4663;49.120;9.730;2023-03-23T00:47:46;97428.81;;;7.35;74.71
19751;BME280;4663;49.120;9.730;2023-03-23T00:50:16;97426.91;;;7.43;75.08
19751;BME280;4663;49.120;9.730;2023-03-23T00:52:42;97429.59;;;7.43;74.40
19751;BME280;4663;49.120;9.730;2023-03-23T00:55:08;97434.44;;;7.48;73.76
19751;BME280;4663;49.120;9.730;2023-03-23T00:57:33;97436.59;;;7.29;74.65
19751;BME280;4663;49.120;9.730;2023-03-23T00:59:58;97426.03;;;7.51;73.69
19751;BME280;4663;49.120;9.730;2023-03-23T01:02:24;97417.66;;;7.46;73.39
19751;BME280;4663;49.120;9.730;2023-03-23T01:04:52;97423.53;;;7.65;73.37
19751;BME280;4663;49.120;9.730;2023-03-23T01:07:19;97426.41;;;7.63;73.69
19751;BME280;4663;49.120;9.730;2023-03-23T01:09:45;97419.09;;;7.57;72.28
19751;BME280;4663;49.120;9.730;2023-03-23T01:12:11;97425.72;;;7.46;74.11
19751;BME280;4663;49.120;9.730;2023-03-23T01:14:37;97419.88;;;7.42;75.51
19751;BME280;4663;49.120;9.730;2023-03-23T01:17:02;97411.91;;;7.49;74.18
19751;BME280;4663;49.120;9.730;2023-03-23T01:19:28;97398.78;;;7.54;73.77
19751;BME280;4663;49.120;9.730;2023-03-23T01:21:53;97397.97;;;7.54;73.69
19751;BME280;4663;49.120;9.730;2023-03-23T01:24:19;97390.72;;;7.54;73.39
19751;BME280;4663;49.120;9.730;2023-03-23T01:26:45;97394.06;;;7.56;74.36
19751;BME280;4663;49.120;9.730;2023-03-23T01:29:10;97398.91;;;7.38;75.30
19751;BME280;4663;49.120;9.730;2023-03-23T01:31:36;97391.09;;;7.51;74.96
19751;BME280;4663;49.120;9.730;2023-03-23T01:34:02;97386.38;;;7.53;74.70
19751;BME280;4663;49.120;9.730;2023-03-23T01:36:29;97383.16;;;7.35;74.96
19751;BME280;4663;49.120;9.730;2023-03-23T01:38:58;97376.00;;;7.50;73.75
19751;BME280;4663;49.120;9.730;2023-03-23T01:41:24;97370.41;;;7.37;74.47
19751;BME280;4663;49.120;9.730;2023-03-23T01:46:42;97379.59;;;7.19;75.92
19751;BME280;4663;49.120;9.730;2023-03-23T01:49:14;97369.53;;;7.21;76.50
19751;BME280;4663;49.120;9.730;2023-03-23T01:51:43;97370.72;;;7.18;75.58
19751;BME280;4663;49.120;9.730;2023-03-23T01:54:13;97371.72;;;7.41;74.56
19751;BME280;4663;49.120;9.730;2023-03-23T01:57:04;97377.22;;;7.24;75.42
19751;BME280;4663;49.120;9.730;2023-03-23T01:59:32;97372.09;;;7.14;76.13
19751;BME280;4663;49.120;9.730;2023-03-23T02:01:59;97368.69;;;7.21;76.01
19751;BME280;4663;49.120;9.730;2023-03-23T02:04:26;97364.44;;;7.26;75.68
19751;BME280;4663;49.120;9.730;2023-03-23T02:06:52;97357.72;;;7.07;75.94
19751;BME280;4663;49.120;9.730;2023-03-23T02:09:19;97358.00;;;7.12;75.36
19751;BME280;4663;49.120;9.730;2023-03-23T02:11:46;97358.91;;;7.28;75.72
19751;BME280;4663;49.120;9.730;2023-03-23T02:14:13;97348.66;;;7.32;74.90
19751;BME280;4663;49.120;9.730;2023-03-23T02:16:40;97356.59;;;7.01;76.48
19751;BME280;4663;49.120;9.730;2023-03-23T02:33:40;97340.94;;;7.28;76.17
19751;BME280;4663;49.120;9.730;2023-03-23T02:36:01;97340.78;;;7.45;74.02
19751;BME280;4663;49.120;9.730;2023-03-23T02:38:37;97344.25;;;7.54;74.30
19751;BME280;4663;49.120;9.730;2023-03-23T02:41:03;97336.34;;;7.37;74.56
19751;BME280;4663;49.120;9.730;2023-03-23T02:43:34;97336.38;;;7.52;74.02
19751;BME280;4663;49.120;9.730;2023-03-23T02:46:05;97339.75;;;7.31;76.10
19751;BME280;4663;49.120;9.730;2023-03-23T02:48:33;97337.50;;;7.20;75.91
19751;BME280;4663;49.120;9.730;2023-03-23T02:51:00;97336.09;;;7.47;75.41
19751;BME280;4663;49.120;9.730;2023-03-23T02:53:28;97321.16;;;7.44;73.80
19751;BME280;4663;49.120;9.730;2023-03-23T02:55:55;97319.03;;;7.40;74.39
19751;BME280;4663;49.120;9.730;2023-03-23T02:58:21;97297.81;;;7.45;73.75
19751;BME280;4663;49.120;9.730;2023-03-23T03:00:50;97309.38;;;7.30;73.85
19751;BME280;4663;49.120;9.730;2023-03-23T03:03:19;97314.09;;;7.28;74.41
19751;BME280;4663;49.120;9.730;2023-03-23T03:08:46;97303.28;;;6.98;74.66
19751;BME280;4663;49.120;9.730;2023-03-23T03:11:16;97301.19;;;7.09;74.90
19751;BME280;4663;49.120;9.730;2023-03-23T03:13:51;97309.97;;;6.79;75.55
19751;BME280;4663;49.120;9.730;2023-03-23T03:16:42;97311.31;;;6.98;74.80
19751;BME280;4663;49.120;9.730;2023-03-23T03:19:14;97317.50;;;6.84;75.73
19751;BME280;4663;49.120;9.730;2023-03-23T03:21:43;97315.69;;;6.99;75.33
19751;BME280;4663;49.120;9.730;2023-03-23T03:24:11;97313.94;;;7.07;75.56
19751;BME280;4663;49.120;9.730;2023-03-23T03:26:45;97316.19;;;7.18;75.77
19751;BME280;4663;49.120;9.730;2023-03-23T03:29:13;97298.31;;;7.10;76.33
19751;BME280;4663;49.120;9.730;2023-03-23T03:31:43;97292.25;;;7.32;75.64
19751;BME280;4663;49.120;9.730;2023-03-23T03:34:11;97299.84;;;7.28;74.81
19751;BME280;4663;49.120;9.730;2023-03-23T03:36:37;97290.72;;;7.14;75.70
19751;BME280;4663;49.120;9.730;2023-03-23T03:39:05;97288.72;;;7.31;74.93
19751;BME280;4663;49.120;9.730;2023-03-23T03:41:36;97291.78;;;7.28;75.39
19751;BME280;4663;49.120;9.730;2023-03-23T03:44:05;97289.59;;;7.32;74.99
19751;BME280;4663;49.120;9.730;2023-03-23T03:46:32;97290.22;;;7.34;74.22
19751;BME280;4663;49.120;9.730;2023-03-23T03:48:59;97306.06;;;7.43;74.40
19751;BME280;4663;49.120;9.730;2023-03-23T03:51:26;97306.22;;;7.27;74.91
19751;BME280;4663;49.120;9.730;2023-03-23T03:53:52;97293.75;;;7.49;73.93
19751;BME280;4663;49.120;9.730;2023-03-23T03:56:18;97305.56;;;7.25;75.13
19751;BME280;4663;49.120;9.730;2023-03-23T03:58:45;97298.94;;;7.36;74.82
19751;BME280;4663;49.120;9.730;2023-03-23T04:01:11;97303.00;;;7.32;73.78
19751;BME280;4663;49.120;9.730;2023-03-23T04:03:37;97309.09;;;7.40;74.21
19751;BME280;4663;49.120;9.730;2023-03-23T04:06:03;97305.69;;;7.32;74.43
19751;BME280;4663;49.120;9.730;2023-03-23T04:08:28;97303.38;;;7.28;75.32
19751;BME280;4663;49.120;9.730;2023-03-23T04:10:54;97303.81;;;7.32;75.17
19751;BME280;4663;49.120;9.730;2023-03-23T04:13:20;97298.19;;;7.42;74.48
19751;BME280;4663;49.120;9.730;2023-03-23T04:15:46;97296.53;;;7.41;74.56
19751;BME280;4663;49.120;9.730;2023-03-23T04:18:12;97294.28;;;7.29;74.95
19751;BME280;4663;49.120;9.730;2023-03-23T04:20:40;97284.13;;;7.40;73.70
19751;BME280;4663;49.120;9.730;2023-03-23T04:23:05;97295.69;;;7.40;74.47
19751;BME280;4663;49.120;9.730;2023-03-23T04:25:31;97283.78;;;7.58;72.74
19751;BME280;4663;49.120;9.730;2023-03-23T04:27:58;97284.22;;;7.62;72.75
19751;BME280;4663;49.120;9.730;2023-03-23T04:30:24;97293.84;;;7.41;73.93
19751;BME280;4663;49.120;9.730;2023-03-23T04:32:50;97300.44;;;7.53;73.98
19751;BME280;4663;49.120;9.730;2023-03-23T04:35:18;97301.69;;;7.27;74.99
19751;BME280;4663;49.120;9.730;2023-03-23T04:37:45;97314.47;;;7.25;75.38
19751;BME280;4663;49.120;9.730;2023-03-23T04:40:11;97312.06;;;7.30;75.25
19751;BME280;4663;49.120;9.730;2023-03-23T04:42:42;97314.03;;;7.52;75.34
19751;BME280;4663;49.120;9.730;2023-03-23T04:45:16;97301.19;;;7.47;74.84
19751;BME280;4663;49.120;9.730;2023-03-23T04:47:46;97303.03;;;7.47;74.73
19751;BME280;4663;49.120;9.730;2023-03-23T04:50:19;97294.78;;;7.48;74.35
19751;BME280;4663;49.120;9.730;2023-03-23T04:52:45;97299.97;;;7.50;74.98
19751;BME280;4663;49.120;9.730;2023-03-23T04:55:12;97286.16;;;7.53;75.21
19751;BME280;4663;49.120;9.730;2023-03-23T04:57:37;97284.53;;;7.67;74.12
19751;BME280;4663;49.120;9.730;2023-03-23T05:00:04;97279.72;;;7.77;71.11
19751;BME280;4663;49.120;9.730;2023-03-23T05:02:36;97284.59;;;7.59;72.22
19751;BME280;4663;49.120;9.730;2023-03-23T05:05:08;97288.19;;;7.51;73.55
19751;BME280;4663;49.120;9.730;2023-03-23T05:07:33;97290.63;;;7.61;72.97
19751;BME280;4663;49.120;9.730;2023-03-23T05:09:59;97290.94;;;7.81;72.34
19751;BME280;4663;49.120;9.730;2023-03-23T05:12:25;97293.03;;;7.55;72.65
19751;BME280;4663;49.120;9.730;2023-03-23T05:14:50;97302.66;;;7.65;73.50
19751;BME280;4663;49.120;9.730;2023-03-23T05:17:15;97308.56;;;7.45;73.46
19751;BME280;4663;49.120;9.730;2023-03-23T05:19:45;97294.13;;;7.46;73.66
19751;BME280;4663;49.120;9.730;2023-03-23T05:22:13;97286.34;;;7.66;72.34
19751;BME280;4663;49.120;9.730;2023-03-23T05:24:40;97295.06;;;7.53;72.80
19751;BME280;4663;49.120;9.730;2023-03-23T05:27:10;97287.09;;;7.75;72.37
19751;BME280;4663;49.120;9.730;2023-03-23T05:29:36;97284.22;;;7.62;72.44
19751;BME280;4663;49.120;9.730;2023-03-23T05:32:05;97283.94;;;7.56;73.34
19751;BME280;4663;49.120;9.730;2023-03-23T05:34:31;97281.44;;;7.55;73.30
19751;BME280;4663;49.120;9.730;2023-03-23T05:37:01;97285.34;;;7.52;73.66
19751;BME280;4663;49.120;9.730;2023-03-23T05:39:27;97290.16;;;7.57;75.53
19751;BME280;4663;49.120;9.730;2023-03-23T05:41:53;97294.41;;;7.66;75.33
19751;BME280;4663;49.120;9.730;2023-03-23T05:44:19;97298.59;;;7.69;73.76
19751;BME280;4663;49.120;9.730;2023-03-23T05:46:45;97292.94;;;7.64;74.85
19751;BME280;4663;49.120;9.730;2023-03-23T05:49:10;97291.81;;;7.58;74.95
19751;BME280;4663;49.120;9.730;2023-03-23T05:51:36;97294.13;;;7.46;75.99
19751;BME280;4663;49.120;9.730;2023-03-23T05:54:02;97300.16;;;7.48;76.86
19751;BME280;4663;49.120;9.730;2023-03-23T05:56:28;97295.47;;;7.80;75.17
19751;BME280;4663;49.120;9.730;2023-03-23T05:58:55;97286.28;;;7.90;75.71
19751;BME280;4663;49.120;9.730;2023-03-23T06:01:20;97300.81;;;7.65;76.65
19751;BME280;4663;49.120;9.730;2023-03-23T06:03:46;97294.59;;;7.65;76.41
19751;BME280;4663;49.120;9.730;2023-03-23T06:06:12;97300.00;;;7.80;76.99
19751;BME280;4663;49.120;9.730;2023-03-23T06:08:37;97305.38;;;7.95;78.02
19751;BME280;4663;49.120;9.730;2023-03-23T06:11:04;97309.47;;;7.91;77.38
19751;BME280;4663;49.120;9.730;2023-03-23T06:13:29;97303.63;;;7.87;77.67
19751;BME280;4663;49.120;9.730;2023-03-23T06:15:55;97315.31;;;7.79;78.01
19751;BME280;4663;49.120;9.730;2023-03-23T06:18:23;97319.00;;;7.78;77.46
19751;BME280;4663;49.120;9.730;2023-03-23T06:20:49;97321.50;;;8.10;76.72
19751;BME280;4663;49.120;9.730;2023-03-23T06:23:14;97322.84;;;8.21;77.65
19751;BME280;4663;49.120;9.730;2023-03-23T06:25:40;97333.16;;;8.17;78.62
19751;BME280;4663;49.120;9.730;2023-03-23T06:28:05;97336.78;;;8.10;79.85
19751;BME280;4663;49.120;9.730;2023-03-23T06:30:31;97348.28;;;8.18;81.06
19751;BME280;4663;49.120;9.730;2023-03-23T06:32:56;97331.19;;;8.26;79.96
19751;BME280;4663;49.120;9.730;2023-03-23T06:35:22;97342.41;;;8.30;79.06
19751;BME280;4663;49.120;9.730;2023-03-23T06:37:47;97341.09;;;8.41;79.11
19751;BME280;4663;49.120;9.730;2023-03-23T06:40:12;97345.00;;;8.38;80.08
19751;BME280;4663;49.120;9.730;2023-03-23T06:42:38;97347.75;;;8.45;80.33
19751;BME280;4663;49.120;9.730;2023-03-23T06:45:04;97342.50;;;8.37;81.53
19751;BME280;4663;49.120;9.730;2023-03-23T06:47:30;97358.06;;;8.26;83.92
19751;BME280;4663;49.120;9.730;2023-03-23T06:49:56;97360.09;;;8.39;83.74
19751;BME280;4663;49.120;9.730;2023-03-23T06:52:23;97371.75;;;8.25;84.03
19751;BME280;4663;49.120;9.730;2023-03-23T06:54:49;97361.22;;;8.45;82.76
19751;BME280;4663;49.120;9.730;2023-03-23T06:57:15;97367.94;;;8.19;84.82
19751;BME280;4663;49.120;9.730;2023-03-23T06:59:41;97357.03;;;8.42;84.82
19751;BME280;4663;49.120;9.730;2023-03-23T07:02:09;97356.09;;;8.50;83.93
19751;BME280;4663;49.120;9.730;2023-03-23T07:04:36;97375.63;;;8.37;84.60
19751;BME280;4663;49.120;9.730;2023-03-23T07:07:02;97373.22;;;8.64;84.99
19751;BME280;4663;49.120;9.730;2023-03-23T07:09:28;97374.72;;;8.52;85.35
19751;BME280;4663;49.120;9.730;2023-03-23T07:11:53;97366.41;;;8.46;85.16
19751;BME280;4663;49.120;9.730;2023-03-23T07:14:19;97373.03;;;8.66;87.94
19751;BME280;4663;49.120;9.730;2023-03-23T07:16:44;97378.19;;;8.97;86.84
19751;BME280;4663;49.120;9.730;2023-03-23T07:19:10;97376.59;;;9.03;83.70
19751;BME280;4663;49.120;9.730;2023-03-23T07:21:36;97371.75;;;8.98;86.35
19751;BME280;4663;49.120;9.730;2023-03-23T07:24:01;97377.81;;;8.85;87.84
19751;BME280;4663;49.120;9.730;2023-03-23T07:26:27;97383.19;;;8.85;89.03
19751;BME280;4663;49.120;9.730;2023-03-23T07:28:52;97397.94;;;9.05;89.09
19751;BME280;4663;49.120;9.730;2023-03-23T07:31:18;97391.91;;;9.25;88.91
19751;BME280;4663;49.120;9.730;2023-03-23T07:33:43;97392.97;;;9.08;89.05
19751;BME280;4663;49.120;9.730;2023-03-23T07:36:09;97388.75;;;8.99;90.90
19751;BME280;4663;49.120;9.730;2023-03-23T07:38:34;97392.91;;;9.02;91.61
19751;BME280;4663;49.120;9.730;2023-03-23T07:41:00;97387.63;;;9.30;89.42
19751;BME280;4663;49.120;9.730;2023-03-23T07:43:26;97393.38;;;9.05;90.37
19751;BME280;4663;49.120;9.730;2023-03-23T07:45:52;97397.00;;;8.61;90.97
19751;BME280;4663;49.120;9.730;2023-03-23T07:48:17;97395.16;;;8.83;89.94
19751;BME280;4663;49.120;9.730;2023-03-23T07:50:43;97398.44;;;8.78;88.55
19751;BME280;4663;49.120;9.730;2023-03-23T07:53:08;97403.13;;;8.54;88.94
19751;BME280;4663;49.120;9.730;2023-03-23T07:55:34;97409.81;;;8.58;87.37
19751;BME280;4663;49.120;9.730;2023-03-23T07:57:59;97412.97;;;8.47;86.04
19751;BME280;4663;49.120;9.730;2023-03-23T08:00:25;97418.88;;;8.57;88.18
19751;BME280;4663;49.120;9.730;2023-03-23T08:02:55;97422.44;;;8.43;88.08
19751;BME280;4663;49.120;9.730;2023-03-23T08:05:22;97423.16;;;8.67;88.07
19751;BME280;4663;49.120;9.730;2023-03-23T08:07:49;97408.72;;;8.53;86.25
19751;BME280;4663;49.120;9.730;2023-03-23T08:10:15;97423.91;;;8.61;85.53
19751;BME280;4663;49.120;9.730;2023-03-23T08:12:43;97410.88;;;8.79;83.03
19751;BME280;4663;49.120;9.730;2023-03-23T08:15:11;97431.09;;;9.27;85.78
19751;BME280;4663;49.120;9.730;2023-03-23T08:17:43;97430.19;;;9.20;86.70
19751;BME280;4663;49.120;9.730;2023-03-23T08:20:11;97438.09;;;9.72;85.20
19751;BME280;4663;49.120;9.730;2023-03-23T08:22:43;97430.81;;;9.94;83.72
19751;BME280;4663;49.120;9.730;2023-03-23T08:25:11;97433.13;;;9.97;80.84
19751;BME280;4663;49.120;9.730;2023-03-23T08:27:38;97434.56;;;10.22;79.87
19751;BME280;4663;49.120;9.730;2023-03-23T08:30:10;97433.38;;;10.31;80.19
19751;BME280;4663;49.120;9.730;2023-03-23T08:32:36;97445.41;;;10.35;81.70
19751;BME280;4663;49.120;9.730;2023-03-23T08:35:02;97443.72;;;10.28;80.07
19751;BME280;4663;49.120;9.730;2023-03-23T08:37:28;97445.81;;;10.32;79.37
19751;BME280;4663;49.120;9.730;2023-03-23T08:39:55;97445.81;;;10.32;81.00
19751;BME280;4663;49.120;9.730;2023-03-23T08:42:23;97446.94;;;10.09;79.11
19751;BME280;4663;49.120;9.730;2023-03-23T08:44:49;97443.56;;;10.36;80.25
19751;BME280;4663;49.120;9.730;2023-03-23T08:47:15;97445.25;;;10.44;78.87
19751;BME280;4663;49.120;9.730;2023-03-23T08:49:41;97442.78;;;10.49;78.81
19751;BME280;4663;49.120;9.730;2023-03-23T08:52:08;97457.88;;;10.36;77.28
19751;BME280;4663;49.120;9.730;2023-03-23T08:54:34;97449.41;;;10.46;76.11
19751;BME280;4663;49.120;9.730;2023-03-23T08:57:01;97455.44;;;10.42;75.39
19751;BME280;4663;49.120;9.730;2023-03-23T08:59:28;97446.00;;;10.73;73.74
19751;BME280;4663;49.120;9.730;2023-03-23T09:01:54;97458.09;;;10.77;76.31
19751;BME280;4663;49.120;9.730;2023-03-23T09:04:20;97449.13;;;10.70;73.23
19751;BME280;4663;49.120;9.730;2023-03-23T09:06:46;97458.03;;;10.63;75.70
19751;BME280;4663;49.120;9.730;2023-03-23T09:09:17;97458.41;;;10.60;75.21
19751;BME280;4663;49.120;9.730;2023-03-23T09:11:42;97456.34;;;10.56;72.76
19751;BME280;4663;49.120;9.730;2023-03-23T09:14:07;97455.31;;;10.63;73.62
19751;BME280;4663;49.120;9.730;2023-03-23T09:16:34;97459.28;;;10.68;73.75
19751;BME280;4663;49.120;9.730;2023-03-23T09:19:00;97468.03;;;10.70;75.81
19751;BME280;4663;49.120;9.730;2023-03-23T09:21:27;97485.91;;;10.42;75.45
19751;BME280;4663;49.120;9.730;2023-03-23T09:23:52;97482.31;;;10.28;75.18
19751;BME280;4663;49.120;9.730;2023-03-23T09:26:18;97492.88;;;10.58;76.32
19751;BME280;4663;49.120;9.730;2023-03-23T09:28:44;97480.53;;;10.42;74.02
19751;BME280;4663;49.120;9.730;2023-03-23T09:31:11;97501.38;;;10.55;75.91
19751;BME280;4663;49.120;9.730;2023-03-23T09:33:38;97506.13;;;10.53;77.00
19751;BME280;4663;49.120;9.730;2023-03-23T09:36:03;97504.00;;;10.42;76.67
19751;BME280;4663;49.120;9.730;2023-03-23T09:38:31;97503.13;;;10.70;75.48
19751;BME280;4663;49.120;9.730;2023-03-23T09:41:03;97507.53;;;10.84;77.07
19751;BME280;4663;49.120;9.730;2023-03-23T09:48:54;97512.31;;;10.82;76.90
19751;BME280;4663;49.120;9.730;2023-03-23T09:54:07;97506.53;;;10.85;75.98
19751;BME280;4663;49.120;9.730;2023-03-23T09:56:36;97495.06;;;10.83;73.29
19751;BME280;4663;49.120;9.730;2023-03-23T10:01:49;97511.31;;;10.97;75.07
19751;BME280;4663;49.120;9.730;2023-03-23T10:04:22;97511.50;;;10.88;74.44
19751;BME280;4663;49.120;9.730;2023-03-23T10:06:49;97514.25;;;10.95;73.92
19751;BME280;4663;49.120;9.730;2023-03-23T10:09:18;97521.59;;;10.73;75.34
19751;BME280;4663;49.120;9.730;2023-03-23T10:12:21;97521.59;;;10.73;75.84
19751;BME280;4663;49.120;9.730;2023-03-23T10:22:52;97523.72;;;10.84;73.64
19751;BME280;4663;49.120;9.730;2023-03-23T10:25:23;97527.44;;;11.12;75.16
19751;BME280;4663;49.120;9.730;2023-03-23T10:30:27;97523.13;;;11.31;74.77
19751;BME280;4663;49.120;9.730;2023-03-23T10:33:05;97526.81;;;11.16;73.51
19751;BME280;4663;49.120;9.730;2023-03-23T10:35:42;97535.47;;;11.05;74.30
19751;BME280;4663;49.120;9.730;2023-03-23T10:38:19;97547.47;;;10.96;75.32
19751;BME280;4663;49.120;9.730;2023-03-23T10:40:56;97541.03;;;10.97;74.01
19751;BME280;4663;49.120;9.730;2023-03-23T10:43:24;97542.22;;;10.87;73.64
19751;BME280;4663;49.120;9.730;2023-03-23T10:48:41;97548.47;;;11.23;75.81
19751;BME280;4663;49.120;9.730;2023-03-23T10:51:11;97541.44;;;11.29;73.61
19751;BME280;4663;49.120;9.730;2023-03-23T10:53:46;97551.41;;;11.35;73.25
19751;BME280;4663;49.120;9.730;2023-03-23T10:56:26;97545.00;;;11.50;73.36
19751;BME280;4663;49.120;9.730;2023-03-23T10:58:53;97553.38;;;11.75;73.80
19751;BME280;4663;49.120;9.730;2023-03-23T11:01:20;97543.59;;;11.67;73.52
19751;BME280;4663;49.120;9.730;2023-03-23T11:03:53;97541.03;;;11.39;73.66
19751;BME280;4663;49.120;9.730;2023-03-23T11:06:22;97543.16;;;11.57;73.20
19751;BME280;4663;49.120;9.730;2023-03-23T11:08:55;97540.13;;;12.14;73.74
19751;BME280;4663;49.120;9.730;2023-03-23T11:11:27;97538.47;;;12.13;72.31
19751;BME280;4663;49.120;9.730;2023-03-23T11:14:12;97549.88;;;12.69;71.51
19751;BME280;4663;49.120;9.730;2023-03-23T11:16:45;97538.84;;;12.57;69.88
19751;BME280;4663;49.120;9.730;2023-03-23T11:19:20;97535.91;;;12.73;71.57
19751;BME280;4663;49.120;9.730;2023-03-23T11:21:49;97542.00;;;12.41;70.90
19751;BME280;4663;49.120;9.730;2023-03-23T11:24:14;97540.34;;;12.26;71.36
19751;BME280;4663;49.120;9.730;2023-03-23T11:26:43;97540.94;;;12.35;72.55
19751;BME280;4663;49.120;9.730;2023-03-23T11:29:13;97540.34;;;12.06;72.29
19751;BME280;4663;49.120;9.730;2023-03-23T11:34:24;97548.22;;;12.55;71.82
19751;BME280;4663;49.120;9.730;2023-03-23T11:36:58;97537.00;;;12.38;70.59
19751;BME280;4663;49.120;9.730;2023-03-23T11:39:45;97541.19;;;12.40;71.36
19751;BME280;4663;49.120;9.730;2023-03-23T11:42:17;97531.41;;;12.12;71.83
19751;BME280;4663;49.120;9.730;2023-03-23T11:44:44;97524.31;;;12.25;73.52
19751;BME280;4663;49.120;9.730;2023-03-23T11:47:40;97529.09;;;12.23;74.97
19751;BME280;4663;49.120;9.730;2023-03-23T11:50:18;97538.25;;;12.28;75.30
19751;BME280;4663;49.120;9.730;2023-03-23T11:53:09;97539.28;;;12.34;74.04
19751;BME280;4663;49.120;9.730;2023-03-23T11:58:17;97533.25;;;12.18;73.03
19751;BME280;4663;49.120;9.730;2023-03-23T12:03:22;97535.34;;;12.30;75.15
19751;BME280;4663;49.120;9.730;2023-03-23T12:06:04;97531.97;;;12.68;72.83
19751;BME280;4663;49.120;9.730;2023-03-23T12:14:16;97546.09;;;12.70;72.95
19751;BME280;4663;49.120;9.730;2023-03-23T12:17:24;97540.25;;;12.80;70.95
19751;BME280;4663;49.120;9.730;2023-03-23T12:36:11;97528.00;;;11.90;71.90
19751;BME280;4663;49.120;9.730;2023-03-23T12:41:21;97523.66;;;11.75;70.28
19751;BME280;4663;49.120;9.730;2023-03-23T12:48:57;97510.75;;;12.04;70.81
19751;BME280;4663;49.120;9.730;2023-03-23T12:51:44;97508.06;;;12.38;69.92
19751;BME280;4663;49.120;9.730;2023-03-23T12:54:36;97514.13;;;12.20;69.75
19751;BME280;4663;49.120;9.730;2023-03-23T12:59:42;97507.47;;;12.23;69.15
19751;BME280;4663;49.120;9.730;2023-03-23T13:02:27;97505.78;;;12.35;70.12
19751;BME280;4663;49.120;9.730;2023-03-23T13:10:44;97500.59;;;12.40;70.14
19751;BME280;4663;49.120;9.730;2023-03-23T13:13:16;97499.91;;;12.52;69.09
19751;BME280;4663;49.120;9.730;2023-03-23T13:21:27;97485.00;;;12.09;69.03
19751;BME280;4663;49.120;9.730;2023-03-23T13:24:09;97487.28;;;12.32;71.10
19751;BME280;4663;49.120;9.730;2023-03-23T13:26:39;97480.56;;;12.48;70.95
19751;BME280;4663;49.120;9.730;2023-03-23T13:29:10;97465.34;;;12.54;68.64
19751;BME280;4663;49.120;9.730;2023-03-23T13:31:39;97474.97;;;12.36;70.64
19751;BME280;4663;49.120;9.730;2023-03-23T13:34:19;97457.72;;;12.17;68.77
19751;BME280;4663;49.120;9.730;2023-03-23T13:36:57;97458.75;;;11.96;69.23
19751;BME280;4663;49.120;9.730;2023-03-23T13:50:08;97458.56;;;12.90;69.65
19751;BME280;4663;49.120;9.730;2023-03-23T14:08:37;97444.53;;;12.48;69.19
19751;BME280;4663;49.120;9.730;2023-03-23T14:11:26;97441.16;;;12.59;68.27
19751;BME280;4663;49.120;9.730;2023-03-23T14:18:59;97397.28;;;12.50;68.87
19751;BME280;4663;49.120;9.730;2023-03-23T14:24:00;97407.63;;;12.67;70.01
19751;BME280;4663;49.120;9.730;2023-03-23T14:26:25;97404.13;;;12.60;69.51
19751;BME280;4663;49.120;9.730;2023-03-23T14:28:53;97410.94;;;12.76;69.60
19751;BME280;4663;49.120;9.730;2023-03-23T14:31:22;97410.72;;;12.70;68.94
19751;BME280;4663;49.120;9.730;2023-03-23T14:33:49;97413.56;;;12.89;69.10
19751;BME280;4663;49.120;9.730;2023-03-23T14:36:23;97412.25;;;12.99;69.80
19751;BME280;4663;49.120;9.730;2023-03-23T14:42:13;97416.09;;;12.77;69.06
19751;BME280;4663;49.120;9.730;2023-03-23T14:44:46;97418.34;;;12.87;70.17
19751;BME280;4663;49.120;9.730;2023-03-23T14:47:20;97425.78;;;12.60;69.66
19751;BME280;4663;49.120;9.730;2023-03-23T14:49:47;97428.66;;;12.65;70.14
19751;BME280;4663;49.120;9.730;2023-03-23T14:52:17;97424.03;;;12.79;69.23
19751;BME280;4663;49.120;9.730;2023-03-23T14:54:44;97431.56;;;12.63;70.55
19751;BME280;4663;49.120;9.730;2023-03-23T14:59:48;97438.44;;;12.73;71.50
19751;BME280;4663;49.120;9.730;2023-03-23T15:02:24;97432.69;;;12.49;69.78
19751;BME280;4663;49.120;9.730;2023-03-23T15:05:04;97436.41;;;12.48;70.13
19751;BME280;4663;49.120;9.730;2023-03-23T15:07:35;97429.53;;;12.52;69.16
19751;BME280;4663;49.120;9.730;2023-03-23T15:10:05;97443.13;;;12.38;71.66
19751;BME280;4663;49.120;9.730;2023-03-23T15:12:31;97433.97;;;12.32;71.09
19751;BME280;4663;49.120;9.730;2023-03-23T15:15:00;97431.50;;;12.17;70.70
19751;BME280;4663;49.120;9.730;2023-03-23T15:17:31;97435.88;;;12.18;72.06
19751;BME280;4663;49.120;9.730;2023-03-23T15:19:57;97429.41;;;12.19;72.55
19751;BME280;4663;49.120;9.730;2023-03-23T15:22:28;97419.22;;;11.94;72.20
19751;BME280;4663;49.120;9.730;2023-03-23T15:25:11;97421.94;;;12.15;73.91
19751;BME280;4663;49.120;9.730;2023-03-23T15:27:41;97420.03;;;12.29;72.36
19751;BME280;4663;49.120;9.730;2023-03-23T15:32:51;97418.59;;;12.19;71.90
19751;BME280;4663;49.120;9.730;2023-03-23T15:35:19;97432.56;;;12.16;72.08
19751;BME280;4663;49.120;9.730;2023-03-23T15:38:05;97437.13;;;11.89;74.66
19751;BME280;4663;49.120;9.730;2023-03-23T15:40:34;97435.47;;;12.08;73.73
19751;BME280;4663;49.120;9.730;2023-03-23T15:43:08;97436.31;;;11.88;74.32
19751;BME280;4663;49.120;9.730;2023-03-23T15:45:54;97429.00;;;11.82;75.02